KBPT/BPT METAR and TAF weather

Enter ICAO airport designator
Station Type Date Time Source
KBPT METAR 2024/07/13 02:53 UTC NOAA

KBPT 130253Z 00000KT 10SM CLR 26/26 A3007 RMK AO2 SLP182 T02610256 53000


Station Type Date Time Source
KBPT Decoded METAR 2024/07/13 02:53 UTC NOAA

SOUTHEAST TEXAS RGNL AIRPORT, TX, United States (KBPT) 29-95N 094-08W 5M
Jul 12, 2024 - 10:53 PM EDT / 2024.07.13 0253 UTC
Wind: Calm:0
Visibility: 10 mile(s):0
Sky conditions: clear
Temperature: 79.0 F (26.1 C)
Dew Point: 78.1 F (25.6 C)
Relative Humidity: 97%
Pressure (altimeter): 30.07 in. Hg (1018 hPa)
Pressure tendency: 0.00 inches (0.0 hPa) higher than three hours ago
ob: KBPT 130253Z 00000KT 10SM CLR 26/26 A3007 RMK AO2 SLP182 T02610256 53000
cycle: 3

Station Type Date Time Source
KBPT TAF 2024/07/12 18:22 UTC NOAA